sensor_id;sensor_type;location;lat;lon;timestamp;P1;durP1;ratioP1;P2;durP2;ratioP2
12758;SDS011;20944;47.048;15.390;2024-01-30T00:00:05;7.80;;;3.80;;
12758;SDS011;20944;47.048;15.390;2024-01-30T00:02:34;11.60;;;4.53;;
12758;SDS011;20944;47.048;15.390;2024-01-30T00:05:03;6.37;;;3.93;;
12758;SDS011;20944;47.048;15.390;2024-01-30T00:07:32;9.17;;;4.23;;
12758;SDS011;20944;47.048;15.390;2024-01-30T00:10:00;10.13;;;3.93;;
12758;SDS011;20944;47.048;15.390;2024-01-30T00:12:28;6.07;;;3.97;;
12758;SDS011;20944;47.048;15.390;2024-01-30T00:14:58;5.63;;;4.00;;
12758;SDS011;20944;47.048;15.390;2024-01-30T00:17:27;6.13;;;3.47;;
12758;SDS011;20944;47.048;15.390;2024-01-30T00:19:56;6.50;;;3.93;;
12758;SDS011;20944;47.048;15.390;2024-01-30T00:22:24;8.93;;;4.07;;
12758;SDS011;20944;47.048;15.390;2024-01-30T00:24:52;7.23;;;3.93;;
12758;SDS011;20944;47.048;15.390;2024-01-30T00:27:21;12.87;;;4.00;;
12758;SDS011;20944;47.048;15.390;2024-01-30T00:29:49;9.80;;;4.73;;
12758;SDS011;20944;47.048;15.390;2024-01-30T00:32:17;8.70;;;3.73;;
12758;SDS011;20944;47.048;15.390;2024-01-30T00:34:48;8.13;;;4.70;;
12758;SDS011;20944;47.048;15.390;2024-01-30T00:37:16;7.97;;;4.13;;
12758;SDS011;20944;47.048;15.390;2024-01-30T00:39:44;12.07;;;4.30;;
12758;SDS011;20944;47.048;15.390;2024-01-30T00:42:13;10.53;;;4.47;;
12758;SDS011;20944;47.048;15.390;2024-01-30T00:44:41;5.80;;;4.20;;
12758;SDS011;20944;47.048;15.390;2024-01-30T00:47:09;12.50;;;4.97;;
12758;SDS011;20944;47.048;15.390;2024-01-30T00:49:38;9.00;;;4.27;;
12758;SDS011;20944;47.048;15.390;2024-01-30T00:52:07;9.90;;;4.47;;
12758;SDS011;20944;47.048;15.390;2024-01-30T00:54:36;11.13;;;4.30;;
12758;SDS011;20944;47.048;15.390;2024-01-30T00:57:05;7.70;;;4.13;;
12758;SDS011;20944;47.048;15.390;2024-01-30T00:59:33;7.97;;;4.40;;
12758;SDS011;20944;47.048;15.390;2024-01-30T01:02:01;9.13;;;4.40;;
12758;SDS011;20944;47.048;15.390;2024-01-30T01:04:30;7.97;;;4.60;;
12758;SDS011;20944;47.048;15.390;2024-01-30T01:06:59;8.77;;;4.23;;
12758;SDS011;20944;47.048;15.390;2024-01-30T01:09:28;8.13;;;4.23;;
12758;SDS011;20944;47.048;15.390;2024-01-30T01:11:56;11.83;;;4.17;;
12758;SDS011;20944;47.048;15.390;2024-01-30T01:14:25;6.47;;;4.00;;
12758;SDS011;20944;47.048;15.390;2024-01-30T01:16:53;7.23;;;3.80;;
12758;SDS011;20944;47.048;15.390;2024-01-30T01:19:21;8.67;;;4.13;;
12758;SDS011;20944;47.048;15.390;2024-01-30T01:21:50;13.47;;;4.50;;
12758;SDS011;20944;47.048;15.390;2024-01-30T01:24:18;11.07;;;5.03;;
12758;SDS011;20944;47.048;15.390;2024-01-30T01:26:48;7.87;;;4.10;;
12758;SDS011;20944;47.048;15.390;2024-01-30T01:29:16;10.10;;;4.53;;
12758;SDS011;20944;47.048;15.390;2024-01-30T01:31:45;7.33;;;3.87;;
12758;SDS011;20944;47.048;15.390;2024-01-30T01:34:13;9.73;;;4.50;;
12758;SDS011;20944;47.048;15.390;2024-01-30T01:36:41;13.23;;;5.23;;
12758;SDS011;20944;47.048;15.390;2024-01-30T01:39:09;8.67;;;4.17;;
12758;SDS011;20944;47.048;15.390;2024-01-30T01:41:38;12.87;;;4.70;;
12758;SDS011;20944;47.048;15.390;2024-01-30T01:44:07;11.97;;;4.97;;
12758;SDS011;20944;47.048;15.390;2024-01-30T01:46:36;8.87;;;4.80;;
12758;SDS011;20944;47.048;15.390;2024-01-30T01:49:04;6.20;;;3.90;;
12758;SDS011;20944;47.048;15.390;2024-01-30T01:51:35;7.80;;;4.50;;
12758;SDS011;20944;47.048;15.390;2024-01-30T01:54:04;7.80;;;4.03;;
12758;SDS011;20944;47.048;15.390;2024-01-30T01:56:33;7.53;;;4.20;;
12758;SDS011;20944;47.048;15.390;2024-01-30T01:59:04;10.00;;;4.10;;
12758;SDS011;20944;47.048;15.390;2024-01-30T02:01:35;5.93;;;4.07;;
12758;SDS011;20944;47.048;15.390;2024-01-30T02:04:04;8.87;;;4.30;;
12758;SDS011;20944;47.048;15.390;2024-01-30T02:06:34;9.53;;;4.30;;
12758;SDS011;20944;47.048;15.390;2024-01-30T02:09:03;7.87;;;4.37;;
12758;SDS011;20944;47.048;15.390;2024-01-30T02:11:32;7.17;;;4.10;;
12758;SDS011;20944;47.048;15.390;2024-01-30T02:14:02;7.53;;;4.00;;
12758;SDS011;20944;47.048;15.390;2024-01-30T02:16:30;5.00;;;2.93;;
12758;SDS011;20944;47.048;15.390;2024-01-30T02:19:00;8.47;;;4.20;;
12758;SDS011;20944;47.048;15.390;2024-01-30T02:21:30;9.43;;;3.87;;
12758;SDS011;20944;47.048;15.390;2024-01-30T02:23:58;10.73;;;3.93;;
12758;SDS011;20944;47.048;15.390;2024-01-30T02:26:28;7.93;;;4.17;;
12758;SDS011;20944;47.048;15.390;2024-01-30T02:28:56;6.93;;;3.10;;
12758;SDS011;20944;47.048;15.390;2024-01-30T02:31:25;8.90;;;4.17;;
12758;SDS011;20944;47.048;15.390;2024-01-30T02:33:53;12.80;;;4.73;;
12758;SDS011;20944;47.048;15.390;2024-01-30T02:36:22;9.10;;;4.43;;
12758;SDS011;20944;47.048;15.390;2024-01-30T02:38:51;7.17;;;3.87;;
12758;SDS011;20944;47.048;15.390;2024-01-30T02:41:19;10.73;;;4.27;;
12758;SDS011;20944;47.048;15.390;2024-01-30T02:43:48;10.53;;;4.20;;
12758;SDS011;20944;47.048;15.390;2024-01-30T02:46:16;8.50;;;4.00;;
12758;SDS011;20944;47.048;15.390;2024-01-30T02:48:44;7.77;;;3.73;;
12758;SDS011;20944;47.048;15.390;2024-01-30T02:51:13;8.03;;;4.03;;
12758;SDS011;20944;47.048;15.390;2024-01-30T02:53:41;9.83;;;4.20;;
12758;SDS011;20944;47.048;15.390;2024-01-30T02:56:10;11.47;;;4.70;;
12758;SDS011;20944;47.048;15.390;2024-01-30T02:58:40;7.80;;;3.93;;
12758;SDS011;20944;47.048;15.390;2024-01-30T03:01:08;7.00;;;3.80;;
12758;SDS011;20944;47.048;15.390;2024-01-30T03:03:36;8.07;;;3.90;;
12758;SDS011;20944;47.048;15.390;2024-01-30T03:06:05;9.90;;;4.40;;
12758;SDS011;20944;47.048;15.390;2024-01-30T03:08:33;12.27;;;4.70;;
12758;SDS011;20944;47.048;15.390;2024-01-30T03:11:02;7.80;;;3.80;;
12758;SDS011;20944;47.048;15.390;2024-01-30T03:13:32;8.50;;;4.37;;
12758;SDS011;20944;47.048;15.390;2024-01-30T03:16:00;7.30;;;3.93;;
12758;SDS011;20944;47.048;15.390;2024-01-30T03:18:29;7.70;;;4.40;;
12758;SDS011;20944;47.048;15.390;2024-01-30T03:20:57;8.07;;;3.93;;
12758;SDS011;20944;47.048;15.390;2024-01-30T03:23:26;12.23;;;5.17;;
12758;SDS011;20944;47.048;15.390;2024-01-30T03:25:54;8.87;;;4.53;;
12758;SDS011;20944;47.048;15.390;2024-01-30T03:28:22;11.93;;;4.87;;
12758;SDS011;20944;47.048;15.390;2024-01-30T03:30:52;6.97;;;3.93;;
12758;SDS011;20944;47.048;15.390;2024-01-30T03:33:20;12.17;;;4.50;;
12758;SDS011;20944;47.048;15.390;2024-01-30T03:35:48;8.40;;;4.20;;
12758;SDS011;20944;47.048;15.390;2024-01-30T03:38:16;11.83;;;5.30;;
12758;SDS011;20944;47.048;15.390;2024-01-30T03:40:44;10.97;;;5.03;;
12758;SDS011;20944;47.048;15.390;2024-01-30T03:43:13;8.07;;;4.07;;
12758;SDS011;20944;47.048;15.390;2024-01-30T03:45:41;12.00;;;4.40;;
12758;SDS011;20944;47.048;15.390;2024-01-30T03:48:11;8.33;;;4.37;;
12758;SDS011;20944;47.048;15.390;2024-01-30T03:50:39;7.40;;;4.30;;
12758;SDS011;20944;47.048;15.390;2024-01-30T03:53:07;9.20;;;4.40;;
12758;SDS011;20944;47.048;15.390;2024-01-30T03:55:35;11.83;;;5.03;;
12758;SDS011;20944;47.048;15.390;2024-01-30T03:58:03;9.27;;;3.97;;
12758;SDS011;20944;47.048;15.390;2024-01-30T04:00:32;12.70;;;3.90;;
12758;SDS011;20944;47.048;15.390;2024-01-30T04:03:00;7.20;;;4.23;;
12758;SDS011;20944;47.048;15.390;2024-01-30T04:05:30;9.00;;;4.47;;
12758;SDS011;20944;47.048;15.390;2024-01-30T04:07:58;10.33;;;5.13;;
12758;SDS011;20944;47.048;15.390;2024-01-30T04:10:27;9.93;;;4.60;;
12758;SDS011;20944;47.048;15.390;2024-01-30T04:12:55;6.60;;;4.10;;
12758;SDS011;20944;47.048;15.390;2024-01-30T04:15:23;11.47;;;4.40;;
12758;SDS011;20944;47.048;15.390;2024-01-30T04:17:51;7.10;;;3.83;;
12758;SDS011;20944;47.048;15.390;2024-01-30T04:20:20;10.60;;;4.77;;
12758;SDS011;20944;47.048;15.390;2024-01-30T04:22:49;7.30;;;3.50;;
12758;SDS011;20944;47.048;15.390;2024-01-30T04:25:18;9.43;;;4.70;;
12758;SDS011;20944;47.048;15.390;2024-01-30T04:27:46;6.63;;;4.50;;
12758;SDS011;20944;47.048;15.390;2024-01-30T04:30:14;8.30;;;4.30;;
12758;SDS011;20944;47.048;15.390;2024-01-30T04:32:43;4.90;;;3.40;;
12758;SDS011;20944;47.048;15.390;2024-01-30T04:35:12;10.97;;;4.27;;
12758;SDS011;20944;47.048;15.390;2024-01-30T04:37:40;6.37;;;3.83;;
12758;SDS011;20944;47.048;15.390;2024-01-30T04:40:10;8.33;;;4.37;;
12758;SDS011;20944;47.048;15.390;2024-01-30T04:42:39;6.83;;;4.00;;
12758;SDS011;20944;47.048;15.390;2024-01-30T04:45:07;8.27;;;4.23;;
12758;SDS011;20944;47.048;15.390;2024-01-30T04:47:36;8.40;;;3.67;;
12758;SDS011;20944;47.048;15.390;2024-01-30T04:50:06;11.50;;;4.67;;
12758;SDS011;20944;47.048;15.390;2024-01-30T04:52:35;6.13;;;3.73;;
12758;SDS011;20944;47.048;15.390;2024-01-30T04:55:04;7.90;;;3.53;;
12758;SDS011;20944;47.048;15.390;2024-01-30T04:57:34;10.27;;;4.57;;
12758;SDS011;20944;47.048;15.390;2024-01-30T05:00:03;8.13;;;4.07;;
12758;SDS011;20944;47.048;15.390;2024-01-30T05:02:32;6.27;;;3.77;;
12758;SDS011;20944;47.048;15.390;2024-01-30T05:05:00;7.90;;;4.10;;
12758;SDS011;20944;47.048;15.390;2024-01-30T05:07:29;8.57;;;4.17;;
12758;SDS011;20944;47.048;15.390;2024-01-30T05:09:57;12.17;;;4.13;;
12758;SDS011;20944;47.048;15.390;2024-01-30T05:12:30;7.13;;;3.70;;
12758;SDS011;20944;47.048;15.390;2024-01-30T05:15:00;9.07;;;4.20;;
12758;SDS011;20944;47.048;15.390;2024-01-30T05:17:28;7.73;;;3.97;;
12758;SDS011;20944;47.048;15.390;2024-01-30T05:19:56;6.53;;;3.37;;
12758;SDS011;20944;47.048;15.390;2024-01-30T05:22:24;6.93;;;4.30;;
12758;SDS011;20944;47.048;15.390;2024-01-30T05:24:53;8.80;;;4.30;;
12758;SDS011;20944;47.048;15.390;2024-01-30T05:27:21;11.77;;;4.47;;
12758;SDS011;20944;47.048;15.390;2024-01-30T05:29:49;6.83;;;4.20;;
12758;SDS011;20944;47.048;15.390;2024-01-30T05:32:19;6.37;;;4.50;;
12758;SDS011;20944;47.048;15.390;2024-01-30T05:34:47;7.37;;;4.03;;
12758;SDS011;20944;47.048;15.390;2024-01-30T05:37:17;7.90;;;4.60;;
12758;SDS011;20944;47.048;15.390;2024-01-30T05:39:45;12.30;;;4.67;;
12758;SDS011;20944;47.048;15.390;2024-01-30T05:42:13;10.50;;;4.60;;
12758;SDS011;20944;47.048;15.390;2024-01-30T05:44:43;9.83;;;4.50;;
12758;SDS011;20944;47.048;15.390;2024-01-30T05:47:11;9.73;;;4.90;;
12758;SDS011;20944;47.048;15.390;2024-01-30T05:49:41;8.10;;;4.70;;
12758;SDS011;20944;47.048;15.390;2024-01-30T05:52:09;9.63;;;4.70;;
12758;SDS011;20944;47.048;15.390;2024-01-30T05:54:37;6.93;;;4.20;;
12758;SDS011;20944;47.048;15.390;2024-01-30T05:57:06;8.60;;;4.20;;
12758;SDS011;20944;47.048;15.390;2024-01-30T05:59:34;7.03;;;4.20;;
12758;SDS011;20944;47.048;15.390;2024-01-30T06:02:07;7.13;;;4.00;;
12758;SDS011;20944;47.048;15.390;2024-01-30T06:04:35;6.97;;;4.23;;
12758;SDS011;20944;47.048;15.390;2024-01-30T06:07:05;8.57;;;3.83;;
12758;SDS011;20944;47.048;15.390;2024-01-30T06:09:34;8.17;;;4.00;;
12758;SDS011;20944;47.048;15.390;2024-01-30T06:12:03;8.53;;;3.80;;
12758;SDS011;20944;47.048;15.390;2024-01-30T06:14:32;7.83;;;4.03;;
12758;SDS011;20944;47.048;15.390;2024-01-30T06:17:01;7.00;;;3.90;;
12758;SDS011;20944;47.048;15.390;2024-01-30T06:19:29;9.77;;;4.43;;
12758;SDS011;20944;47.048;15.390;2024-01-30T06:21:58;10.63;;;4.13;;
12758;SDS011;20944;47.048;15.390;2024-01-30T06:24:28;8.90;;;4.50;;
12758;SDS011;20944;47.048;15.390;2024-01-30T06:26:56;9.73;;;4.43;;
12758;SDS011;20944;47.048;15.390;2024-01-30T06:29:24;11.73;;;4.33;;
12758;SDS011;20944;47.048;15.390;2024-01-30T06:31:53;8.50;;;4.53;;
12758;SDS011;20944;47.048;15.390;2024-01-30T06:34:22;12.50;;;4.47;;
12758;SDS011;20944;47.048;15.390;2024-01-30T06:36:50;9.37;;;4.90;;
12758;SDS011;20944;47.048;15.390;2024-01-30T06:39:18;10.10;;;4.30;;
12758;SDS011;20944;47.048;15.390;2024-01-30T06:41:48;11.43;;;5.07;;
12758;SDS011;20944;47.048;15.390;2024-01-30T06:44:17;13.87;;;5.20;;
12758;SDS011;20944;47.048;15.390;2024-01-30T06:46:45;10.53;;;4.87;;
12758;SDS011;20944;47.048;15.390;2024-01-30T06:49:13;10.47;;;4.43;;
12758;SDS011;20944;47.048;15.390;2024-01-30T06:51:41;8.13;;;4.13;;
12758;SDS011;20944;47.048;15.390;2024-01-30T06:54:09;10.13;;;4.33;;
12758;SDS011;20944;47.048;15.390;2024-01-30T06:56:38;6.63;;;4.00;;
12758;SDS011;20944;47.048;15.390;2024-01-30T06:59:08;8.60;;;4.03;;
12758;SDS011;20944;47.048;15.390;2024-01-30T07:01:36;11.60;;;4.47;;
12758;SDS011;20944;47.048;15.390;2024-01-30T07:04:04;9.37;;;4.27;;
12758;SDS011;20944;47.048;15.390;2024-01-30T07:06:33;6.70;;;3.77;;
12758;SDS011;20944;47.048;15.390;2024-01-30T07:09:01;11.53;;;4.30;;
12758;SDS011;20944;47.048;15.390;2024-01-30T07:11:30;8.47;;;4.20;;
12758;SDS011;20944;47.048;15.390;2024-01-30T07:13:58;8.33;;;3.73;;
12758;SDS011;20944;47.048;15.390;2024-01-30T07:16:28;6.57;;;3.33;;
12758;SDS011;20944;47.048;15.390;2024-01-30T07:18:56;7.60;;;4.37;;
12758;SDS011;20944;47.048;15.390;2024-01-30T07:21:25;8.00;;;4.10;;
12758;SDS011;20944;47.048;15.390;2024-01-30T07:23:55;8.53;;;4.20;;
12758;SDS011;20944;47.048;15.390;2024-01-30T07:26:23;8.80;;;4.30;;
12758;SDS011;20944;47.048;15.390;2024-01-30T07:28:51;7.77;;;3.97;;
12758;SDS011;20944;47.048;15.390;2024-01-30T07:31:19;8.00;;;3.97;;
12758;SDS011;20944;47.048;15.390;2024-01-30T07:33:51;8.23;;;3.87;;
12758;SDS011;20944;47.048;15.390;2024-01-30T07:36:20;9.57;;;4.10;;
12758;SDS011;20944;47.048;15.390;2024-01-30T07:38:49;9.70;;;4.33;;
12758;SDS011;20944;47.048;15.390;2024-01-30T07:41:17;9.47;;;4.20;;
12758;SDS011;20944;47.048;15.390;2024-01-30T07:43:45;9.73;;;4.60;;
12758;SDS011;20944;47.048;15.390;2024-01-30T07:46:13;10.20;;;4.57;;
12758;SDS011;20944;47.048;15.390;2024-01-30T07:48:42;7.50;;;4.27;;
12758;SDS011;20944;47.048;15.390;2024-01-30T07:51:11;6.23;;;3.87;;
12758;SDS011;20944;47.048;15.390;2024-01-30T07:53:40;9.37;;;4.97;;
12758;SDS011;20944;47.048;15.390;2024-01-30T07:56:08;10.40;;;4.60;;
12758;SDS011;20944;47.048;15.390;2024-01-30T07:58:37;17.53;;;4.80;;
12758;SDS011;20944;47.048;15.390;2024-01-30T08:01:05;8.67;;;5.20;;
12758;SDS011;20944;47.048;15.390;2024-01-30T08:03:33;11.17;;;5.70;;
12758;SDS011;20944;47.048;15.390;2024-01-30T08:06:02;7.20;;;4.33;;
12758;SDS011;20944;47.048;15.390;2024-01-30T08:08:32;8.77;;;4.57;;
12758;SDS011;20944;47.048;15.390;2024-01-30T08:11:01;8.63;;;4.50;;
12758;SDS011;20944;47.048;15.390;2024-01-30T08:13:29;11.80;;;5.47;;
12758;SDS011;20944;47.048;15.390;2024-01-30T08:15:57;10.03;;;5.17;;
12758;SDS011;20944;47.048;15.390;2024-01-30T08:18:25;9.23;;;5.63;;
12758;SDS011;20944;47.048;15.390;2024-01-30T08:20:54;8.03;;;4.83;;
12758;SDS011;20944;47.048;15.390;2024-01-30T08:23:22;10.53;;;6.07;;
12758;SDS011;20944;47.048;15.390;2024-01-30T08:25:52;18.00;;;6.27;;
12758;SDS011;20944;47.048;15.390;2024-01-30T08:28:20;11.90;;;5.77;;
12758;SDS011;20944;47.048;15.390;2024-01-30T08:30:48;13.13;;;6.43;;
12758;SDS011;20944;47.048;15.390;2024-01-30T08:33:16;12.53;;;6.90;;
12758;SDS011;20944;47.048;15.390;2024-01-30T08:35:45;13.23;;;6.73;;
12758;SDS011;20944;47.048;15.390;2024-01-30T08:38:13;13.43;;;6.63;;
12758;SDS011;20944;47.048;15.390;2024-01-30T08:40:41;14.63;;;6.27;;
12758;SDS011;20944;47.048;15.390;2024-01-30T08:43:11;13.33;;;6.77;;
12758;SDS011;20944;47.048;15.390;2024-01-30T08:45:40;12.43;;;6.57;;
12758;SDS011;20944;47.048;15.390;2024-01-30T08:48:08;15.17;;;5.83;;
12758;SDS011;20944;47.048;15.390;2024-01-30T08:50:37;12.17;;;6.53;;
12758;SDS011;20944;47.048;15.390;2024-01-30T08:53:05;10.87;;;6.40;;
12758;SDS011;20944;47.048;15.390;2024-01-30T08:55:33;15.67;;;6.93;;
12758;SDS011;20944;47.048;15.390;2024-01-30T08:58:01;11.57;;;6.33;;
12758;SDS011;20944;47.048;15.390;2024-01-30T09:00:33;18.33;;;6.27;;
12758;SDS011;20944;47.048;15.390;2024-01-30T09:03:01;14.47;;;7.13;;
12758;SDS011;20944;47.048;15.390;2024-01-30T09:05:29;13.77;;;5.97;;
12758;SDS011;20944;47.048;15.390;2024-01-30T09:07:58;13.70;;;6.57;;
12758;SDS011;20944;47.048;15.390;2024-01-30T09:10:26;12.50;;;6.57;;
12758;SDS011;20944;47.048;15.390;2024-01-30T09:12:54;14.20;;;6.70;;
12758;SDS011;20944;47.048;15.390;2024-01-30T09:15:23;13.00;;;6.47;;
12758;SDS011;20944;47.048;15.390;2024-01-30T09:17:53;12.33;;;6.03;;
12758;SDS011;20944;47.048;15.390;2024-01-30T09:20:22;12.00;;;5.90;;
12758;SDS011;20944;47.048;15.390;2024-01-30T09:22:50;12.97;;;6.17;;
12758;SDS011;20944;47.048;15.390;2024-01-30T09:25:18;12.47;;;6.20;;
12758;SDS011;20944;47.048;15.390;2024-01-30T09:27:46;12.50;;;5.83;;
12758;SDS011;20944;47.048;15.390;2024-01-30T09:30:15;15.67;;;6.20;;
12758;SDS011;20944;47.048;15.390;2024-01-30T09:32:44;11.73;;;5.93;;
12758;SDS011;20944;47.048;15.390;2024-01-30T09:35:14;12.13;;;6.03;;
12758;SDS011;20944;47.048;15.390;2024-01-30T09:37:42;14.43;;;6.90;;
12758;SDS011;20944;47.048;15.390;2024-01-30T09:40:13;10.07;;;6.03;;
12758;SDS011;20944;47.048;15.390;2024-01-30T09:42:46;10.77;;;6.27;;
12758;SDS011;20944;47.048;15.390;2024-01-30T09:45:17;12.93;;;6.53;;
12758;SDS011;20944;47.048;15.390;2024-01-30T09:47:46;13.03;;;6.30;;
12758;SDS011;20944;47.048;15.390;2024-01-30T09:50:16;14.97;;;6.00;;
12758;SDS011;20944;47.048;15.390;2024-01-30T09:52:45;12.67;;;5.27;;
12758;SDS011;20944;47.048;15.390;2024-01-30T09:55:14;11.63;;;6.50;;
12758;SDS011;20944;47.048;15.390;2024-01-30T09:57:42;13.63;;;5.70;;
12758;SDS011;20944;47.048;15.390;2024-01-30T10:00:11;13.10;;;5.03;;
12758;SDS011;20944;47.048;15.390;2024-01-30T10:02:40;8.60;;;5.07;;
12758;SDS011;20944;47.048;15.390;2024-01-30T10:05:08;8.67;;;4.77;;
12758;SDS011;20944;47.048;15.390;2024-01-30T10:07:38;13.00;;;5.27;;
12758;SDS011;20944;47.048;15.390;2024-01-30T10:10:17;11.50;;;5.27;;
12758;SDS011;20944;47.048;15.390;2024-01-30T10:12:45;11.90;;;4.60;;
12758;SDS011;20944;47.048;15.390;2024-01-30T10:15:15;11.67;;;4.47;;
12758;SDS011;20944;47.048;15.390;2024-01-30T10:17:44;12.17;;;4.47;;
12758;SDS011;20944;47.048;15.390;2024-01-30T10:20:13;7.67;;;4.23;;
12758;SDS011;20944;47.048;15.390;2024-01-30T10:22:43;8.10;;;3.10;;
12758;SDS011;20944;47.048;15.390;2024-01-30T10:25:12;12.87;;;4.40;;
12758;SDS011;20944;47.048;15.390;2024-01-30T10:27:40;9.83;;;4.07;;
12758;SDS011;20944;47.048;15.390;2024-01-30T10:30:09;13.87;;;4.90;;
12758;SDS011;20944;47.048;15.390;2024-01-30T10:32:38;8.03;;;4.13;;
12758;SDS011;20944;47.048;15.390;2024-01-30T10:35:06;5.67;;;3.90;;
12758;SDS011;20944;47.048;15.390;2024-01-30T10:37:35;7.17;;;3.17;;
12758;SDS011;20944;47.048;15.390;2024-01-30T10:40:06;10.63;;;4.63;;
12758;SDS011;20944;47.048;15.390;2024-01-30T10:42:36;9.30;;;4.20;;
12758;SDS011;20944;47.048;15.390;2024-01-30T10:45:07;7.33;;;3.63;;
12758;SDS011;20944;47.048;15.390;2024-01-30T10:47:39;6.80;;;3.77;;
12758;SDS011;20944;47.048;15.390;2024-01-30T10:50:09;8.60;;;3.87;;
12758;SDS011;20944;47.048;15.390;2024-01-30T10:52:39;6.30;;;3.73;;
12758;SDS011;20944;47.048;15.390;2024-01-30T10:55:10;7.70;;;4.40;;
12758;SDS011;20944;47.048;15.390;2024-01-30T10:57:38;7.83;;;4.50;;
12758;SDS011;20944;47.048;15.390;2024-01-30T11:00:07;8.37;;;4.30;;
12758;SDS011;20944;47.048;15.390;2024-01-30T11:02:38;8.80;;;4.53;;
12758;SDS011;20944;47.048;15.390;2024-01-30T11:05:08;7.50;;;3.77;;
12758;SDS011;20944;47.048;15.390;2024-01-30T11:07:38;7.20;;;3.93;;
12758;SDS011;20944;47.048;15.390;2024-01-30T11:10:07;13.17;;;4.33;;
12758;SDS011;20944;47.048;15.390;2024-01-30T11:12:41;10.77;;;5.00;;
12758;SDS011;20944;47.048;15.390;2024-01-30T11:15:12;8.33;;;4.37;;
12758;SDS011;20944;47.048;15.390;2024-01-30T11:17:41;8.47;;;4.27;;
12758;SDS011;20944;47.048;15.390;2024-01-30T11:20:10;5.67;;;3.97;;
12758;SDS011;20944;47.048;15.390;2024-01-30T11:22:42;10.77;;;4.70;;
12758;SDS011;20944;47.048;15.390;2024-01-30T11:25:12;10.73;;;4.63;;
12758;SDS011;20944;47.048;15.390;2024-01-30T11:27:43;10.13;;;4.73;;
12758;SDS011;20944;47.048;15.390;2024-01-30T11:30:20;9.17;;;5.13;;
12758;SDS011;20944;47.048;15.390;2024-01-30T11:33:05;7.93;;;3.73;;
12758;SDS011;20944;47.048;15.390;2024-01-30T11:35:35;10.90;;;4.20;;
12758;SDS011;20944;47.048;15.390;2024-01-30T11:38:06;10.60;;;4.57;;
12758;SDS011;20944;47.048;15.390;2024-01-30T11:40:36;10.97;;;4.30;;
12758;SDS011;20944;47.048;15.390;2024-01-30T11:43:07;9.00;;;4.97;;
12758;SDS011;20944;47.048;15.390;2024-01-30T11:45:37;10.40;;;4.43;;
12758;SDS011;20944;47.048;15.390;2024-01-30T11:48:06;8.23;;;4.97;;
12758;SDS011;20944;47.048;15.390;2024-01-30T11:50:37;7.33;;;4.63;;
12758;SDS011;20944;47.048;15.390;2024-01-30T11:53:07;6.77;;;3.53;;
12758;SDS011;20944;47.048;15.390;2024-01-30T11:55:35;10.10;;;4.40;;
12758;SDS011;20944;47.048;15.390;2024-01-30T11:58:04;7.17;;;4.47;;
12758;SDS011;20944;47.048;15.390;2024-01-30T12:00:34;11.50;;;4.93;;
12758;SDS011;20944;47.048;15.390;2024-01-30T12:03:02;12.70;;;5.40;;
12758;SDS011;20944;47.048;15.390;2024-01-30T12:05:33;7.63;;;4.30;;
12758;SDS011;20944;47.048;15.390;2024-01-30T12:08:03;6.77;;;4.57;;
12758;SDS011;20944;47.048;15.390;2024-01-30T12:10:32;5.83;;;3.80;;
12758;SDS011;20944;47.048;15.390;2024-01-30T12:13:01;7.30;;;4.97;;
12758;SDS011;20944;47.048;15.390;2024-01-30T12:15:29;11.57;;;5.70;;
12758;SDS011;20944;47.048;15.390;2024-01-30T12:18:06;8.80;;;5.33;;
12758;SDS011;20944;47.048;15.390;2024-01-30T12:20:35;9.47;;;5.67;;
12758;SDS011;20944;47.048;15.390;2024-01-30T12:23:04;12.27;;;5.13;;
12758;SDS011;20944;47.048;15.390;2024-01-30T12:25:32;12.67;;;5.17;;
12758;SDS011;20944;47.048;15.390;2024-01-30T12:28:00;8.50;;;5.30;;
12758;SDS011;20944;47.048;15.390;2024-01-30T12:30:30;8.90;;;5.90;;
12758;SDS011;20944;47.048;15.390;2024-01-30T12:32:58;11.47;;;6.47;;
12758;SDS011;20944;47.048;15.390;2024-01-30T12:35:28;10.50;;;5.73;;
12758;SDS011;20944;47.048;15.390;2024-01-30T12:37:59;10.70;;;5.93;;
12758;SDS011;20944;47.048;15.390;2024-01-30T12:40:27;8.47;;;5.37;;
12758;SDS011;20944;47.048;15.390;2024-01-30T12:42:56;12.50;;;5.80;;
12758;SDS011;20944;47.048;15.390;2024-01-30T12:45:25;13.37;;;6.63;;
12758;SDS011;20944;47.048;15.390;2024-01-30T12:47:53;11.33;;;6.27;;
12758;SDS011;20944;47.048;15.390;2024-01-30T12:50:21;12.13;;;4.97;;
12758;SDS011;20944;47.048;15.390;2024-01-30T12:52:51;10.90;;;5.77;;
12758;SDS011;20944;47.048;15.390;2024-01-30T12:55:20;11.07;;;5.00;;
12758;SDS011;20944;47.048;15.390;2024-01-30T12:57:48;11.07;;;5.83;;
12758;SDS011;20944;47.048;15.390;2024-01-30T13:00:19;7.60;;;5.23;;
12758;SDS011;20944;47.048;15.390;2024-01-30T13:02:47;8.27;;;4.80;;
12758;SDS011;20944;47.048;15.390;2024-01-30T13:05:17;12.20;;;5.60;;
12758;SDS011;20944;47.048;15.390;2024-01-30T13:07:46;12.47;;;6.00;;
12758;SDS011;20944;47.048;15.390;2024-01-30T13:10:15;11.40;;;5.63;;
12758;SDS011;20944;47.048;15.390;2024-01-30T13:12:44;9.60;;;5.63;;
12758;SDS011;20944;47.048;15.390;2024-01-30T13:15:12;9.50;;;5.20;;
12758;SDS011;20944;47.048;15.390;2024-01-30T13:17:41;7.53;;;4.73;;
12758;SDS011;20944;47.048;15.390;2024-01-30T13:20:10;13.60;;;5.30;;
12758;SDS011;20944;47.048;15.390;2024-01-30T13:22:41;11.20;;;5.37;;
12758;SDS011;20944;47.048;15.390;2024-01-30T13:25:10;9.77;;;5.03;;
12758;SDS011;20944;47.048;15.390;2024-01-30T13:27:40;9.50;;;5.50;;
12758;SDS011;20944;47.048;15.390;2024-01-30T13:30:09;7.27;;;4.63;;
12758;SDS011;20944;47.048;15.390;2024-01-30T13:32:37;11.10;;;4.77;;
12758;SDS011;20944;47.048;15.390;2024-01-30T13:35:08;10.27;;;5.27;;
12758;SDS011;20944;47.048;15.390;2024-01-30T13:37:36;10.30;;;5.03;;
12758;SDS011;20944;47.048;15.390;2024-01-30T13:40:05;16.47;;;5.77;;
12758;SDS011;20944;47.048;15.390;2024-01-30T13:42:41;11.73;;;5.63;;
12758;SDS011;20944;47.048;15.390;2024-01-30T13:45:09;10.43;;;4.77;;
12758;SDS011;20944;47.048;15.390;2024-01-30T13:47:38;10.53;;;5.77;;
12758;SDS011;20944;47.048;15.390;2024-01-30T13:50:06;11.23;;;5.40;;
12758;SDS011;20944;47.048;15.390;2024-01-30T13:52:37;8.03;;;5.50;;
12758;SDS011;20944;47.048;15.390;2024-01-30T13:55:10;12.23;;;5.87;;
12758;SDS011;20944;47.048;15.390;2024-01-30T13:57:40;11.00;;;6.00;;
12758;SDS011;20944;47.048;15.390;2024-01-30T14:00:09;9.20;;;5.83;;
12758;SDS011;20944;47.048;15.390;2024-01-30T14:02:43;10.07;;;5.97;;
12758;SDS011;20944;47.048;15.390;2024-01-30T14:05:12;8.57;;;5.83;;
12758;SDS011;20944;47.048;15.390;2024-01-30T14:07:41;9.13;;;6.03;;
12758;SDS011;20944;47.048;15.390;2024-01-30T14:10:11;12.03;;;5.83;;
12758;SDS011;20944;47.048;15.390;2024-01-30T14:12:43;9.43;;;6.03;;
12758;SDS011;20944;47.048;15.390;2024-01-30T14:15:11;11.40;;;5.50;;
12758;SDS011;20944;47.048;15.390;2024-01-30T14:17:53;16.77;;;6.23;;
12758;SDS011;20944;47.048;15.390;2024-01-30T14:20:23;10.37;;;6.23;;
12758;SDS011;20944;47.048;15.390;2024-01-30T14:22:51;15.40;;;6.20;;
12758;SDS011;20944;47.048;15.390;2024-01-30T14:25:23;8.47;;;5.87;;
12758;SDS011;20944;47.048;15.390;2024-01-30T14:27:53;12.10;;;5.67;;
12758;SDS011;20944;47.048;15.390;2024-01-30T14:30:21;12.67;;;5.90;;
12758;SDS011;20944;47.048;15.390;2024-01-30T14:32:50;11.77;;;5.97;;
12758;SDS011;20944;47.048;15.390;2024-01-30T14:35:18;10.40;;;5.97;;
12758;SDS011;20944;47.048;15.390;2024-01-30T14:37:48;9.70;;;5.23;;